sensor_id;sensor_type;location;lat;lon;timestamp;P1;durP1;ratioP1;P2;durP2;ratioP2
78891;SDS011;68368;51.728;5.248;2023-12-07T00:02:00;13.70;;;8.10;;
78891;SDS011;68368;51.728;5.248;2023-12-07T00:04:05;9.90;;;6.80;;
78891;SDS011;68368;51.728;5.248;2023-12-07T00:06:12;10.50;;;7.20;;
78891;SDS011;68368;51.728;5.248;2023-12-07T00:08:18;11.90;;;8.00;;
78891;SDS011;68368;51.728;5.248;2023-12-07T00:10:25;11.20;;;7.50;;
78891;SDS011;68368;51.728;5.248;2023-12-07T00:12:30;14.90;;;10.30;;
78891;SDS011;68368;51.728;5.248;2023-12-07T00:14:36;16.50;;;10.80;;
78891;SDS011;68368;51.728;5.248;2023-12-07T00:16:41;16.40;;;10.00;;
78891;SDS011;68368;51.728;5.248;2023-12-07T00:18:46;12.40;;;9.10;;
78891;SDS011;68368;51.728;5.248;2023-12-07T00:20:51;12.10;;;8.30;;
78891;SDS011;68368;51.728;5.248;2023-12-07T00:22:55;12.20;;;8.80;;
78891;SDS011;68368;51.728;5.248;2023-12-07T00:25:00;12.10;;;7.80;;
78891;SDS011;68368;51.728;5.248;2023-12-07T00:27:06;11.80;;;7.90;;
78891;SDS011;68368;51.728;5.248;2023-12-07T00:29:10;12.10;;;8.40;;
78891;SDS011;68368;51.728;5.248;2023-12-07T00:31:17;10.30;;;7.50;;
78891;SDS011;68368;51.728;5.248;2023-12-07T00:33:22;9.30;;;6.30;;
78891;SDS011;68368;51.728;5.248;2023-12-07T00:35:29;8.60;;;6.20;;
78891;SDS011;68368;51.728;5.248;2023-12-07T00:37:34;11.10;;;7.70;;
78891;SDS011;68368;51.728;5.248;2023-12-07T00:39:39;15.10;;;9.50;;
78891;SDS011;68368;51.728;5.248;2023-12-07T00:41:45;11.30;;;7.10;;
78891;SDS011;68368;51.728;5.248;2023-12-07T00:43:49;7.20;;;5.20;;
78891;SDS011;68368;51.728;5.248;2023-12-07T00:45:54;12.50;;;8.20;;
78891;SDS011;68368;51.728;5.248;2023-12-07T00:47:59;10.10;;;6.30;;
78891;SDS011;68368;51.728;5.248;2023-12-07T00:50:05;11.30;;;8.40;;
78891;SDS011;68368;51.728;5.248;2023-12-07T00:52:11;10.20;;;7.20;;
78891;SDS011;68368;51.728;5.248;2023-12-07T00:54:16;8.10;;;6.60;;
78891;SDS011;68368;51.728;5.248;2023-12-07T00:56:21;10.70;;;7.90;;
78891;SDS011;68368;51.728;5.248;2023-12-07T00:58:26;10.30;;;6.40;;
78891;SDS011;68368;51.728;5.248;2023-12-07T01:00:31;12.40;;;8.80;;
78891;SDS011;68368;51.728;5.248;2023-12-07T01:02:36;14.50;;;8.90;;
78891;SDS011;68368;51.728;5.248;2023-12-07T01:04:41;12.20;;;7.30;;
78891;SDS011;68368;51.728;5.248;2023-12-07T01:06:46;9.70;;;6.70;;
78891;SDS011;68368;51.728;5.248;2023-12-07T01:08:54;11.70;;;8.00;;
78891;SDS011;68368;51.728;5.248;2023-12-07T01:10:59;11.50;;;8.00;;
78891;SDS011;68368;51.728;5.248;2023-12-07T01:13:04;11.70;;;8.10;;
78891;SDS011;68368;51.728;5.248;2023-12-07T01:15:09;15.30;;;8.90;;
78891;SDS011;68368;51.728;5.248;2023-12-07T01:17:14;15.10;;;10.30;;
78891;SDS011;68368;51.728;5.248;2023-12-07T01:19:19;16.40;;;9.80;;
78891;SDS011;68368;51.728;5.248;2023-12-07T01:21:24;13.70;;;8.90;;
78891;SDS011;68368;51.728;5.248;2023-12-07T01:23:29;14.60;;;8.30;;
78891;SDS011;68368;51.728;5.248;2023-12-07T01:25:35;13.90;;;9.40;;
78891;SDS011;68368;51.728;5.248;2023-12-07T01:27:40;11.60;;;7.70;;
78891;SDS011;68368;51.728;5.248;2023-12-07T01:29:44;9.20;;;6.20;;
78891;SDS011;68368;51.728;5.248;2023-12-07T01:31:52;12.50;;;7.10;;
78891;SDS011;68368;51.728;5.248;2023-12-07T01:36:00;12.80;;;8.10;;
78891;SDS011;68368;51.728;5.248;2023-12-07T01:38:05;16.80;;;10.00;;
78891;SDS011;68368;51.728;5.248;2023-12-07T01:40:13;16.90;;;11.70;;
78891;SDS011;68368;51.728;5.248;2023-12-07T01:42:18;14.00;;;9.40;;
78891;SDS011;68368;51.728;5.248;2023-12-07T01:44:24;14.40;;;10.00;;
78891;SDS011;68368;51.728;5.248;2023-12-07T01:46:28;13.20;;;8.20;;
78891;SDS011;68368;51.728;5.248;2023-12-07T01:48:33;10.60;;;6.10;;
78891;SDS011;68368;51.728;5.248;2023-12-07T01:50:38;8.30;;;6.30;;
78891;SDS011;68368;51.728;5.248;2023-12-07T01:52:45;10.10;;;7.20;;
78891;SDS011;68368;51.728;5.248;2023-12-07T01:54:53;10.20;;;7.20;;
78891;SDS011;68368;51.728;5.248;2023-12-07T01:56:58;11.70;;;8.00;;
78891;SDS011;68368;51.728;5.248;2023-12-07T01:59:03;13.10;;;9.20;;
78891;SDS011;68368;51.728;5.248;2023-12-07T02:01:08;12.90;;;9.50;;
78891;SDS011;68368;51.728;5.248;2023-12-07T02:03:13;13.30;;;8.90;;
78891;SDS011;68368;51.728;5.248;2023-12-07T02:05:19;13.00;;;9.00;;
78891;SDS011;68368;51.728;5.248;2023-12-07T02:07:25;12.60;;;8.10;;
78891;SDS011;68368;51.728;5.248;2023-12-07T02:09:31;12.40;;;8.30;;
78891;SDS011;68368;51.728;5.248;2023-12-07T02:11:36;16.10;;;10.30;;
78891;SDS011;68368;51.728;5.248;2023-12-07T02:13:41;13.30;;;8.60;;
78891;SDS011;68368;51.728;5.248;2023-12-07T02:15:46;12.00;;;8.40;;
78891;SDS011;68368;51.728;5.248;2023-12-07T02:17:55;15.30;;;9.40;;
78891;SDS011;68368;51.728;5.248;2023-12-07T02:20:09;14.00;;;8.60;;
78891;SDS011;68368;51.728;5.248;2023-12-07T02:22:25;12.60;;;8.60;;
78891;SDS011;68368;51.728;5.248;2023-12-07T02:24:33;12.60;;;8.20;;
78891;SDS011;68368;51.728;5.248;2023-12-07T02:26:40;9.80;;;6.70;;
78891;SDS011;68368;51.728;5.248;2023-12-07T02:28:46;12.30;;;8.00;;
78891;SDS011;68368;51.728;5.248;2023-12-07T02:30:51;13.30;;;8.00;;
78891;SDS011;68368;51.728;5.248;2023-12-07T02:32:55;12.80;;;7.90;;
78891;SDS011;68368;51.728;5.248;2023-12-07T02:35:01;12.40;;;8.70;;
78891;SDS011;68368;51.728;5.248;2023-12-07T02:37:06;16.40;;;9.80;;
78891;SDS011;68368;51.728;5.248;2023-12-07T02:39:11;12.10;;;7.10;;
78891;SDS011;68368;51.728;5.248;2023-12-07T02:41:17;13.00;;;8.50;;
78891;SDS011;68368;51.728;5.248;2023-12-07T02:43:23;11.40;;;7.70;;
78891;SDS011;68368;51.728;5.248;2023-12-07T02:45:29;18.00;;;9.60;;
78891;SDS011;68368;51.728;5.248;2023-12-07T02:47:34;12.60;;;7.40;;
78891;SDS011;68368;51.728;5.248;2023-12-07T02:49:40;13.10;;;8.20;;
78891;SDS011;68368;51.728;5.248;2023-12-07T02:51:47;15.20;;;9.50;;
78891;SDS011;68368;51.728;5.248;2023-12-07T02:53:52;16.40;;;9.50;;
78891;SDS011;68368;51.728;5.248;2023-12-07T02:55:57;16.50;;;9.40;;
78891;SDS011;68368;51.728;5.248;2023-12-07T02:58:03;15.20;;;9.30;;
78891;SDS011;68368;51.728;5.248;2023-12-07T03:00:10;15.90;;;10.50;;
78891;SDS011;68368;51.728;5.248;2023-12-07T03:02:16;16.80;;;9.90;;
78891;SDS011;68368;51.728;5.248;2023-12-07T03:04:21;18.90;;;11.50;;
78891;SDS011;68368;51.728;5.248;2023-12-07T03:06:27;17.80;;;10.70;;
78891;SDS011;68368;51.728;5.248;2023-12-07T03:08:33;20.00;;;10.90;;
78891;SDS011;68368;51.728;5.248;2023-12-07T03:10:37;18.20;;;10.90;;
78891;SDS011;68368;51.728;5.248;2023-12-07T03:12:42;18.90;;;11.00;;
78891;SDS011;68368;51.728;5.248;2023-12-07T03:14:48;18.40;;;11.20;;
78891;SDS011;68368;51.728;5.248;2023-12-07T03:16:52;22.40;;;11.60;;
78891;SDS011;68368;51.728;5.248;2023-12-07T03:18:57;21.80;;;12.20;;
78891;SDS011;68368;51.728;5.248;2023-12-07T03:21:05;19.10;;;10.30;;
78891;SDS011;68368;51.728;5.248;2023-12-07T03:23:11;17.60;;;10.90;;
78891;SDS011;68368;51.728;5.248;2023-12-07T03:25:16;19.40;;;12.00;;
78891;SDS011;68368;51.728;5.248;2023-12-07T03:27:21;17.80;;;10.20;;
78891;SDS011;68368;51.728;5.248;2023-12-07T03:29:28;16.90;;;9.80;;
78891;SDS011;68368;51.728;5.248;2023-12-07T03:31:34;15.00;;;8.50;;
78891;SDS011;68368;51.728;5.248;2023-12-07T03:33:40;22.10;;;12.30;;
78891;SDS011;68368;51.728;5.248;2023-12-07T03:35:45;20.80;;;11.30;;
78891;SDS011;68368;51.728;5.248;2023-12-07T03:37:50;18.60;;;11.20;;
78891;SDS011;68368;51.728;5.248;2023-12-07T03:39:58;16.90;;;11.20;;
78891;SDS011;68368;51.728;5.248;2023-12-07T03:42:04;17.00;;;10.80;;
78891;SDS011;68368;51.728;5.248;2023-12-07T03:44:09;15.70;;;10.00;;
78891;SDS011;68368;51.728;5.248;2023-12-07T03:46:15;15.40;;;9.90;;
78891;SDS011;68368;51.728;5.248;2023-12-07T03:48:20;19.40;;;10.70;;
78891;SDS011;68368;51.728;5.248;2023-12-07T03:50:25;19.10;;;10.80;;
78891;SDS011;68368;51.728;5.248;2023-12-07T03:52:30;22.00;;;11.30;;
78891;SDS011;68368;51.728;5.248;2023-12-07T03:54:34;21.10;;;12.40;;
78891;SDS011;68368;51.728;5.248;2023-12-07T03:56:40;22.20;;;13.10;;
78891;SDS011;68368;51.728;5.248;2023-12-07T03:58:45;20.30;;;11.70;;
78891;SDS011;68368;51.728;5.248;2023-12-07T04:00:52;19.60;;;10.40;;
78891;SDS011;68368;51.728;5.248;2023-12-07T04:02:57;17.10;;;11.20;;
78891;SDS011;68368;51.728;5.248;2023-12-07T04:05:02;17.90;;;10.90;;
78891;SDS011;68368;51.728;5.248;2023-12-07T04:07:08;16.00;;;9.60;;
78891;SDS011;68368;51.728;5.248;2023-12-07T04:09:12;17.20;;;10.30;;
78891;SDS011;68368;51.728;5.248;2023-12-07T04:11:17;20.00;;;12.10;;
78891;SDS011;68368;51.728;5.248;2023-12-07T04:13:22;18.10;;;11.00;;
78891;SDS011;68368;51.728;5.248;2023-12-07T04:15:27;14.90;;;9.70;;
78891;SDS011;68368;51.728;5.248;2023-12-07T04:17:34;12.60;;;8.30;;
78891;SDS011;68368;51.728;5.248;2023-12-07T04:19:39;20.10;;;10.50;;
78891;SDS011;68368;51.728;5.248;2023-12-07T04:21:51;19.40;;;10.30;;
78891;SDS011;68368;51.728;5.248;2023-12-07T04:23:55;18.70;;;10.60;;
78891;SDS011;68368;51.728;5.248;2023-12-07T04:26:00;15.60;;;9.90;;
78891;SDS011;68368;51.728;5.248;2023-12-07T04:28:06;16.70;;;10.70;;
78891;SDS011;68368;51.728;5.248;2023-12-07T04:30:13;18.00;;;10.10;;
78891;SDS011;68368;51.728;5.248;2023-12-07T04:32:18;19.60;;;11.80;;
78891;SDS011;68368;51.728;5.248;2023-12-07T04:34:23;18.10;;;10.60;;
78891;SDS011;68368;51.728;5.248;2023-12-07T04:36:28;16.10;;;9.50;;
78891;SDS011;68368;51.728;5.248;2023-12-07T04:38:33;16.40;;;8.70;;
78891;SDS011;68368;51.728;5.248;2023-12-07T04:40:38;13.70;;;8.20;;
78891;SDS011;68368;51.728;5.248;2023-12-07T04:42:43;16.80;;;8.80;;
78891;SDS011;68368;51.728;5.248;2023-12-07T04:44:50;21.80;;;11.00;;
78891;SDS011;68368;51.728;5.248;2023-12-07T04:46:58;20.50;;;12.00;;
78891;SDS011;68368;51.728;5.248;2023-12-07T04:49:03;15.70;;;8.40;;
78891;SDS011;68368;51.728;5.248;2023-12-07T04:51:08;16.30;;;9.60;;
78891;SDS011;68368;51.728;5.248;2023-12-07T04:53:13;21.30;;;11.50;;
78891;SDS011;68368;51.728;5.248;2023-12-07T04:55:21;18.70;;;11.50;;
78891;SDS011;68368;51.728;5.248;2023-12-07T04:57:26;17.20;;;9.90;;
78891;SDS011;68368;51.728;5.248;2023-12-07T04:59:33;16.60;;;9.10;;
78891;SDS011;68368;51.728;5.248;2023-12-07T05:01:39;14.50;;;8.60;;
78891;SDS011;68368;51.728;5.248;2023-12-07T05:03:44;16.90;;;8.90;;
78891;SDS011;68368;51.728;5.248;2023-12-07T05:05:49;22.40;;;11.70;;
78891;SDS011;68368;51.728;5.248;2023-12-07T05:07:56;21.30;;;12.00;;
78891;SDS011;68368;51.728;5.248;2023-12-07T05:10:01;13.70;;;7.60;;
78891;SDS011;68368;51.728;5.248;2023-12-07T05:12:06;17.70;;;10.50;;
78891;SDS011;68368;51.728;5.248;2023-12-07T05:14:11;16.90;;;10.40;;
78891;SDS011;68368;51.728;5.248;2023-12-07T05:16:17;18.40;;;10.70;;
78891;SDS011;68368;51.728;5.248;2023-12-07T05:18:22;17.70;;;9.50;;
78891;SDS011;68368;51.728;5.248;2023-12-07T05:20:27;19.60;;;10.50;;
78891;SDS011;68368;51.728;5.248;2023-12-07T05:22:32;16.70;;;9.00;;
78891;SDS011;68368;51.728;5.248;2023-12-07T05:24:37;21.30;;;11.60;;
78891;SDS011;68368;51.728;5.248;2023-12-07T05:26:43;21.70;;;11.00;;
78891;SDS011;68368;51.728;5.248;2023-12-07T05:28:49;19.20;;;9.90;;
78891;SDS011;68368;51.728;5.248;2023-12-07T05:30:54;18.70;;;9.30;;
78891;SDS011;68368;51.728;5.248;2023-12-07T05:32:59;16.20;;;8.50;;
78891;SDS011;68368;51.728;5.248;2023-12-07T05:35:07;18.20;;;9.70;;
78891;SDS011;68368;51.728;5.248;2023-12-07T05:37:12;18.80;;;9.20;;
78891;SDS011;68368;51.728;5.248;2023-12-07T05:39:17;18.20;;;9.50;;
78891;SDS011;68368;51.728;5.248;2023-12-07T05:41:22;19.50;;;10.10;;
78891;SDS011;68368;51.728;5.248;2023-12-07T05:43:27;18.80;;;9.40;;
78891;SDS011;68368;51.728;5.248;2023-12-07T05:45:33;20.80;;;10.40;;
78891;SDS011;68368;51.728;5.248;2023-12-07T05:47:38;18.20;;;9.90;;
78891;SDS011;68368;51.728;5.248;2023-12-07T05:49:44;17.70;;;9.10;;
78891;SDS011;68368;51.728;5.248;2023-12-07T05:51:49;14.80;;;7.30;;
78891;SDS011;68368;51.728;5.248;2023-12-07T05:53:54;15.30;;;7.60;;
78891;SDS011;68368;51.728;5.248;2023-12-07T05:55:59;18.00;;;8.60;;
78891;SDS011;68368;51.728;5.248;2023-12-07T05:58:03;15.40;;;7.80;;
78891;SDS011;68368;51.728;5.248;2023-12-07T06:00:10;13.10;;;7.60;;
78891;SDS011;68368;51.728;5.248;2023-12-07T06:02:16;13.10;;;6.30;;
78891;SDS011;68368;51.728;5.248;2023-12-07T06:04:23;10.40;;;5.90;;
78891;SDS011;68368;51.728;5.248;2023-12-07T06:06:29;11.40;;;6.30;;
78891;SDS011;68368;51.728;5.248;2023-12-07T06:08:34;10.50;;;5.70;;
78891;SDS011;68368;51.728;5.248;2023-12-07T06:10:40;10.60;;;6.30;;
78891;SDS011;68368;51.728;5.248;2023-12-07T06:12:45;11.70;;;5.90;;
78891;SDS011;68368;51.728;5.248;2023-12-07T06:14:50;13.60;;;7.30;;
78891;SDS011;68368;51.728;5.248;2023-12-07T06:16:56;11.80;;;6.00;;
78891;SDS011;68368;51.728;5.248;2023-12-07T06:19:01;11.60;;;5.70;;
78891;SDS011;68368;51.728;5.248;2023-12-07T06:21:09;7.10;;;4.10;;
78891;SDS011;68368;51.728;5.248;2023-12-07T06:25:17;9.70;;;4.60;;
78891;SDS011;68368;51.728;5.248;2023-12-07T06:27:23;11.70;;;5.90;;
78891;SDS011;68368;51.728;5.248;2023-12-07T06:29:28;12.00;;;6.00;;
78891;SDS011;68368;51.728;5.248;2023-12-07T06:31:34;10.80;;;5.70;;
78891;SDS011;68368;51.728;5.248;2023-12-07T06:33:39;10.60;;;4.80;;
78891;SDS011;68368;51.728;5.248;2023-12-07T06:35:44;13.40;;;6.30;;
78891;SDS011;68368;51.728;5.248;2023-12-07T06:37:49;11.00;;;5.40;;
78891;SDS011;68368;51.728;5.248;2023-12-07T06:39:54;10.40;;;5.00;;
78891;SDS011;68368;51.728;5.248;2023-12-07T06:41:59;11.10;;;5.70;;
78891;SDS011;68368;51.728;5.248;2023-12-07T06:44:05;14.10;;;6.60;;
78891;SDS011;68368;51.728;5.248;2023-12-07T06:46:10;12.10;;;5.90;;
78891;SDS011;68368;51.728;5.248;2023-12-07T06:48:16;15.00;;;7.50;;
78891;SDS011;68368;51.728;5.248;2023-12-07T06:50:21;12.10;;;5.80;;
78891;SDS011;68368;51.728;5.248;2023-12-07T06:52:30;11.70;;;6.20;;
78891;SDS011;68368;51.728;5.248;2023-12-07T06:54:35;15.50;;;7.60;;
78891;SDS011;68368;51.728;5.248;2023-12-07T06:56:40;14.90;;;7.40;;
78891;SDS011;68368;51.728;5.248;2023-12-07T06:58:45;14.10;;;6.40;;
78891;SDS011;68368;51.728;5.248;2023-12-07T07:00:51;15.30;;;7.40;;
78891;SDS011;68368;51.728;5.248;2023-12-07T07:02:57;16.00;;;7.20;;
78891;SDS011;68368;51.728;5.248;2023-12-07T07:05:01;10.30;;;4.40;;
78891;SDS011;68368;51.728;5.248;2023-12-07T07:07:07;15.40;;;7.90;;
78891;SDS011;68368;51.728;5.248;2023-12-07T07:09:12;14.00;;;6.40;;
78891;SDS011;68368;51.728;5.248;2023-12-07T07:11:19;15.90;;;7.30;;
78891;SDS011;68368;51.728;5.248;2023-12-07T07:13:26;14.80;;;6.30;;
78891;SDS011;68368;51.728;5.248;2023-12-07T07:15:31;18.80;;;8.00;;
78891;SDS011;68368;51.728;5.248;2023-12-07T07:17:36;14.00;;;5.10;;
78891;SDS011;68368;51.728;5.248;2023-12-07T07:19:43;13.00;;;5.90;;
78891;SDS011;68368;51.728;5.248;2023-12-07T07:21:48;12.80;;;6.70;;
78891;SDS011;68368;51.728;5.248;2023-12-07T07:23:52;11.80;;;5.80;;
78891;SDS011;68368;51.728;5.248;2023-12-07T07:25:57;10.10;;;4.90;;
78891;SDS011;68368;51.728;5.248;2023-12-07T07:28:03;14.80;;;7.20;;
78891;SDS011;68368;51.728;5.248;2023-12-07T07:30:09;15.60;;;7.60;;
78891;SDS011;68368;51.728;5.248;2023-12-07T07:32:15;16.00;;;7.60;;
78891;SDS011;68368;51.728;5.248;2023-12-07T07:34:20;16.20;;;7.80;;
78891;SDS011;68368;51.728;5.248;2023-12-07T07:36:25;15.10;;;6.90;;
78891;SDS011;68368;51.728;5.248;2023-12-07T07:38:30;13.50;;;6.60;;
78891;SDS011;68368;51.728;5.248;2023-12-07T07:40:35;11.80;;;6.50;;
78891;SDS011;68368;51.728;5.248;2023-12-07T07:42:40;13.50;;;6.60;;
78891;SDS011;68368;51.728;5.248;2023-12-07T07:44:45;13.60;;;6.60;;
78891;SDS011;68368;51.728;5.248;2023-12-07T07:46:49;11.90;;;5.50;;
78891;SDS011;68368;51.728;5.248;2023-12-07T07:48:57;11.80;;;5.70;;
78891;SDS011;68368;51.728;5.248;2023-12-07T07:51:02;16.50;;;7.30;;
78891;SDS011;68368;51.728;5.248;2023-12-07T07:53:11;12.60;;;5.90;;
78891;SDS011;68368;51.728;5.248;2023-12-07T07:55:15;13.90;;;6.80;;
78891;SDS011;68368;51.728;5.248;2023-12-07T07:57:20;14.30;;;6.50;;
78891;SDS011;68368;51.728;5.248;2023-12-07T07:59:25;14.90;;;7.30;;
78891;SDS011;68368;51.728;5.248;2023-12-07T08:01:31;12.70;;;7.00;;
78891;SDS011;68368;51.728;5.248;2023-12-07T08:03:36;15.70;;;6.50;;
78891;SDS011;68368;51.728;5.248;2023-12-07T08:05:41;11.00;;;5.80;;
78891;SDS011;68368;51.728;5.248;2023-12-07T08:07:46;9.30;;;5.00;;
78891;SDS011;68368;51.728;5.248;2023-12-07T08:09:51;11.10;;;5.50;;
78891;SDS011;68368;51.728;5.248;2023-12-07T08:11:56;9.70;;;4.90;;
78891;SDS011;68368;51.728;5.248;2023-12-07T08:14:02;11.90;;;5.70;;
78891;SDS011;68368;51.728;5.248;2023-12-07T08:16:09;12.40;;;5.60;;
78891;SDS011;68368;51.728;5.248;2023-12-07T08:18:17;10.90;;;5.60;;
78891;SDS011;68368;51.728;5.248;2023-12-07T08:20:22;10.10;;;5.40;;
78891;SDS011;68368;51.728;5.248;2023-12-07T08:22:27;11.70;;;6.10;;
78891;SDS011;68368;51.728;5.248;2023-12-07T08:24:32;10.80;;;5.50;;
78891;SDS011;68368;51.728;5.248;2023-12-07T08:26:37;16.00;;;7.40;;
78891;SDS011;68368;51.728;5.248;2023-12-07T08:28:42;12.60;;;5.70;;
78891;SDS011;68368;51.728;5.248;2023-12-07T08:30:47;10.70;;;5.70;;
78891;SDS011;68368;51.728;5.248;2023-12-07T08:32:52;13.20;;;6.00;;
78891;SDS011;68368;51.728;5.248;2023-12-07T08:34:57;12.60;;;6.00;;
78891;SDS011;68368;51.728;5.248;2023-12-07T08:37:03;12.90;;;6.30;;
78891;SDS011;68368;51.728;5.248;2023-12-07T08:39:08;12.20;;;5.90;;
78891;SDS011;68368;51.728;5.248;2023-12-07T08:41:13;12.80;;;5.80;;
78891;SDS011;68368;51.728;5.248;2023-12-07T08:43:21;12.20;;;5.80;;
78891;SDS011;68368;51.728;5.248;2023-12-07T08:45:30;16.10;;;7.40;;
78891;SDS011;68368;51.728;5.248;2023-12-07T08:47:35;14.20;;;5.90;;
78891;SDS011;68368;51.728;5.248;2023-12-07T08:49:40;12.50;;;6.40;;
78891;SDS011;68368;51.728;5.248;2023-12-07T08:51:45;12.30;;;5.20;;
78891;SDS011;68368;51.728;5.248;2023-12-07T08:53:50;12.40;;;5.80;;
78891;SDS011;68368;51.728;5.248;2023-12-07T08:55:55;11.30;;;5.20;;
78891;SDS011;68368;51.728;5.248;2023-12-07T08:58:00;11.90;;;5.80;;
78891;SDS011;68368;51.728;5.248;2023-12-07T09:00:09;13.10;;;6.60;;
78891;SDS011;68368;51.728;5.248;2023-12-07T09:02:14;13.20;;;6.10;;
78891;SDS011;68368;51.728;5.248;2023-12-07T09:04:19;13.00;;;5.90;;
78891;SDS011;68368;51.728;5.248;2023-12-07T09:06:24;14.00;;;6.80;;
78891;SDS011;68368;51.728;5.248;2023-12-07T09:08:29;11.70;;;5.10;;
78891;SDS011;68368;51.728;5.248;2023-12-07T09:10:34;9.60;;;4.50;;
78891;SDS011;68368;51.728;5.248;2023-12-07T09:12:38;11.60;;;6.10;;
78891;SDS011;68368;51.728;5.248;2023-12-07T09:14:43;14.40;;;7.00;;
78891;SDS011;68368;51.728;5.248;2023-12-07T09:16:48;15.00;;;7.60;;
78891;SDS011;68368;51.728;5.248;2023-12-07T09:18:53;14.60;;;7.80;;
78891;SDS011;68368;51.728;5.248;2023-12-07T09:20:58;14.70;;;6.90;;
78891;SDS011;68368;51.728;5.248;2023-12-07T09:23:03;14.90;;;6.70;;
78891;SDS011;68368;51.728;5.248;2023-12-07T09:25:09;13.00;;;7.40;;
78891;SDS011;68368;51.728;5.248;2023-12-07T09:27:14;13.80;;;7.70;;
78891;SDS011;68368;51.728;5.248;2023-12-07T09:29:19;14.00;;;7.00;;
78891;SDS011;68368;51.728;5.248;2023-12-07T09:31:24;15.20;;;7.00;;
78891;SDS011;68368;51.728;5.248;2023-12-07T09:33:31;16.50;;;8.10;;
78891;SDS011;68368;51.728;5.248;2023-12-07T09:35:40;14.80;;;7.10;;
78891;SDS011;68368;51.728;5.248;2023-12-07T09:37:45;15.40;;;7.70;;
78891;SDS011;68368;51.728;5.248;2023-12-07T09:39:51;16.30;;;8.80;;
78891;SDS011;68368;51.728;5.248;2023-12-07T09:41:55;12.90;;;6.40;;
78891;SDS011;68368;51.728;5.248;2023-12-07T09:44:01;9.90;;;5.20;;
78891;SDS011;68368;51.728;5.248;2023-12-07T09:46:06;17.70;;;8.40;;
78891;SDS011;68368;51.728;5.248;2023-12-07T09:48:11;12.10;;;6.60;;
78891;SDS011;68368;51.728;5.248;2023-12-07T09:50:16;13.60;;;7.80;;
78891;SDS011;68368;51.728;5.248;2023-12-07T09:52:22;13.80;;;7.30;;
78891;SDS011;68368;51.728;5.248;2023-12-07T09:54:29;13.90;;;7.70;;
78891;SDS011;68368;51.728;5.248;2023-12-07T09:58:40;11.80;;;6.50;;
78891;SDS011;68368;51.728;5.248;2023-12-07T10:00:45;11.00;;;5.80;;
78891;SDS011;68368;51.728;5.248;2023-12-07T10:02:54;11.90;;;5.40;;
78891;SDS011;68368;51.728;5.248;2023-12-07T10:05:16;10.20;;;5.20;;
78891;SDS011;68368;51.728;5.248;2023-12-07T10:07:23;13.40;;;6.90;;
78891;SDS011;68368;51.728;5.248;2023-12-07T10:09:41;12.80;;;6.60;;
78891;SDS011;68368;51.728;5.248;2023-12-07T10:11:45;13.20;;;6.60;;
78891;SDS011;68368;51.728;5.248;2023-12-07T10:13:50;17.30;;;7.90;;
78891;SDS011;68368;51.728;5.248;2023-12-07T10:16:08;16.50;;;8.70;;
78891;SDS011;68368;51.728;5.248;2023-12-07T10:18:14;18.30;;;9.40;;
78891;SDS011;68368;51.728;5.248;2023-12-07T10:20:28;14.80;;;8.00;;
78891;SDS011;68368;51.728;5.248;2023-12-07T10:22:36;19.10;;;9.30;;
78891;SDS011;68368;51.728;5.248;2023-12-07T10:24:44;16.30;;;8.10;;
78891;SDS011;68368;51.728;5.248;2023-12-07T10:26:55;17.40;;;7.50;;
78891;SDS011;68368;51.728;5.248;2023-12-07T10:29:00;18.30;;;8.40;;
78891;SDS011;68368;51.728;5.248;2023-12-07T10:31:09;14.10;;;7.30;;
78891;SDS011;68368;51.728;5.248;2023-12-07T10:33:14;15.00;;;7.40;;
78891;SDS011;68368;51.728;5.248;2023-12-07T10:35:19;18.30;;;9.00;;
78891;SDS011;68368;51.728;5.248;2023-12-07T10:37:26;19.30;;;10.20;;
78891;SDS011;68368;51.728;5.248;2023-12-07T10:39:31;16.10;;;8.30;;
78891;SDS011;68368;51.728;5.248;2023-12-07T10:41:39;15.50;;;7.90;;
78891;SDS011;68368;51.728;5.248;2023-12-07T10:43:48;18.00;;;8.20;;
78891;SDS011;68368;51.728;5.248;2023-12-07T10:45:54;18.00;;;9.30;;
78891;SDS011;68368;51.728;5.248;2023-12-07T10:48:02;19.80;;;10.10;;
78891;SDS011;68368;51.728;5.248;2023-12-07T10:50:11;18.20;;;9.40;;
78891;SDS011;68368;51.728;5.248;2023-12-07T10:52:25;17.00;;;9.60;;
78891;SDS011;68368;51.728;5.248;2023-12-07T10:54:37;20.50;;;10.20;;
78891;SDS011;68368;51.728;5.248;2023-12-07T10:56:53;18.30;;;9.50;;
78891;SDS011;68368;51.728;5.248;2023-12-07T10:58:59;18.60;;;8.80;;
78891;SDS011;68368;51.728;5.248;2023-12-07T11:01:04;19.00;;;9.60;;
78891;SDS011;68368;51.728;5.248;2023-12-07T11:03:14;17.70;;;10.10;;
78891;SDS011;68368;51.728;5.248;2023-12-07T11:05:20;18.60;;;9.30;;
78891;SDS011;68368;51.728;5.248;2023-12-07T11:07:27;17.30;;;9.20;;
78891;SDS011;68368;51.728;5.248;2023-12-07T11:09:38;17.60;;;9.10;;
78891;SDS011;68368;51.728;5.248;2023-12-07T11:11:51;20.20;;;10.00;;
78891;SDS011;68368;51.728;5.248;2023-12-07T11:14:02;18.90;;;9.60;;
78891;SDS011;68368;51.728;5.248;2023-12-07T11:16:09;19.30;;;9.00;;
78891;SDS011;68368;51.728;5.248;2023-12-07T11:18:14;18.00;;;10.00;;
78891;SDS011;68368;51.728;5.248;2023-12-07T11:20:22;18.10;;;10.20;;
78891;SDS011;68368;51.728;5.248;2023-12-07T11:22:43;19.70;;;10.10;;
78891;SDS011;68368;51.728;5.248;2023-12-07T11:24:56;19.20;;;10.30;;
78891;SDS011;68368;51.728;5.248;2023-12-07T11:27:02;18.80;;;9.30;;
78891;SDS011;68368;51.728;5.248;2023-12-07T11:29:07;19.70;;;10.90;;
78891;SDS011;68368;51.728;5.248;2023-12-07T11:31:12;20.50;;;11.10;;
78891;SDS011;68368;51.728;5.248;2023-12-07T11:33:20;17.60;;;10.30;;
78891;SDS011;68368;51.728;5.248;2023-12-07T11:35:25;17.50;;;9.90;;
78891;SDS011;68368;51.728;5.248;2023-12-07T11:40:08;17.80;;;9.40;;
78891;SDS011;68368;51.728;5.248;2023-12-07T11:42:14;21.20;;;10.30;;
78891;SDS011;68368;51.728;5.248;2023-12-07T11:44:20;19.80;;;10.00;;
78891;SDS011;68368;51.728;5.248;2023-12-07T11:46:36;18.50;;;9.50;;
78891;SDS011;68368;51.728;5.248;2023-12-07T11:48:40;18.10;;;10.20;;
78891;SDS011;68368;51.728;5.248;2023-12-07T11:50:58;19.90;;;9.90;;
78891;SDS011;68368;51.728;5.248;2023-12-07T11:53:06;19.30;;;10.10;;
78891;SDS011;68368;51.728;5.248;2023-12-07T11:55:13;19.80;;;10.40;;
78891;SDS011;68368;51.728;5.248;2023-12-07T11:57:19;19.40;;;10.30;;
78891;SDS011;68368;51.728;5.248;2023-12-07T11:59:23;19.70;;;10.00;;
78891;SDS011;68368;51.728;5.248;2023-12-07T12:01:29;16.70;;;8.70;;
78891;SDS011;68368;51.728;5.248;2023-12-07T12:03:37;20.70;;;10.00;;
78891;SDS011;68368;51.728;5.248;2023-12-07T12:05:44;20.10;;;10.20;;
78891;SDS011;68368;51.728;5.248;2023-12-07T12:07:50;18.70;;;10.40;;
78891;SDS011;68368;51.728;5.248;2023-12-07T12:09:54;19.70;;;10.30;;
78891;SDS011;68368;51.728;5.248;2023-12-07T12:11:59;19.30;;;10.00;;
78891;SDS011;68368;51.728;5.248;2023-12-07T12:14:04;16.10;;;8.70;;
78891;SDS011;68368;51.728;5.248;2023-12-07T12:16:10;18.90;;;11.40;;
78891;SDS011;68368;51.728;5.248;2023-12-07T12:18:15;18.10;;;10.60;;
78891;SDS011;68368;51.728;5.248;2023-12-07T12:20:23;23.00;;;11.70;;
78891;SDS011;68368;51.728;5.248;2023-12-07T12:22:29;21.10;;;11.60;;
78891;SDS011;68368;51.728;5.248;2023-12-07T12:24:34;20.20;;;12.50;;
78891;SDS011;68368;51.728;5.248;2023-12-07T12:26:41;21.40;;;11.40;;
78891;SDS011;68368;51.728;5.248;2023-12-07T12:28:47;21.00;;;12.00;;
78891;SDS011;68368;51.728;5.248;2023-12-07T12:30:54;18.70;;;11.20;;
78891;SDS011;68368;51.728;5.248;2023-12-07T12:32:59;20.30;;;11.70;;
78891;SDS011;68368;51.728;5.248;2023-12-07T12:35:06;19.40;;;11.80;;